Terminal Aerodrome Forecast
Issued by NWS

Home | Current Version | Previous Version | Text Only | Print | Product List | Glossary On
Versions: 1 2 3 4 5 6 7 8 9 10 11 12 13 14 15 16 17 18 19 20 21 22 23 24 25 26
000
FTPA31 PHFO 261100
TAFMKK
TAF
PHMK 261120Z 2612/2712 17007KT P6SM VCSH SCT018 SCT040
     FM262100 22005KT P6SM SCT023 BKN045
     FM270300 33005KT P6SM VCSH SCT020 BKN030
     FM271000 03015KT P6SM VCSH SCT023 BKN040=

USA.gov is the U.S. government's official web portal to all federal, state and local government web resources and services.